Ischua, New York
Current Conditions -  °F | °C
As of 4:35 PM on Wednesday 17 Dec 2014 (Local Time) from KOLE Reporting Station
Light Snow Light Snow  
Wind Chill: 21°   Ceiling: 900
Heat Index: 28°   Visibility: 2mi
Dew Point: 28°   Wind: 7mph
Humidity: 100%   Direction: 270°W
Pressure: 29.89"   Gusts: 20mph
Location:  42.1993°N, 78.412°W
Report Text: KOLE 172135Z AUTO 27006G17KT 2SM -SN OVC009 M02/M02 A2989 RMK AO2
Loading
Personal Weather Stations






























Interactive Weather Map New forecast layout! Learn more

10-Day Weather Forecast

Advertisements
Track Severe Weather on mobile